Time;durP1;ratioP1;P1;durP2;ratioP2;P2;SDS_P1;SDS_P2;PMS_P1;PMS_P2;Temp;Humidity;BMP_temperature;BMP_pressure;BME280_temperature;BME280_humidity;BME280_pressure;Samples;Min_cycle;Max_cycle;Signal;HPM_P1;HPM_P2
2021/06/14 00:00:22;;;;;;;7.65;5.88;;;;;;;;;;5071362;28;20039;-70
2021/06/14 00:03:06;;;;;;;6.95;5.80;;;;;;;;;;5055741;28;20067;-70
2021/06/14 00:05:51;;;;;;;6.63;5.22;;;;;;;;;;5065510;28;20098;-70
2021/06/14 00:08:40;;;;;;;6.93;5.50;;;;;;;;;;5078547;28;20455;-70
2021/06/14 00:11:24;;;;;;;7.15;5.15;;;;;;;;;;5069012;28;20559;-70
2021/06/14 00:14:09;;;;;;;6.60;5.15;;;;;;;;;;5060989;28;20043;-70
2021/06/14 00:16:54;;;;;;;7.20;5.07;;;;;;;;;;5091683;28;20114;-69
2021/06/14 00:19:39;;;;;;;6.78;5.20;;;;;;;;;;5076173;28;20062;-70
2021/06/14 00:22:23;;;;;;;6.03;4.75;;;;;;;;;;5077918;28;20046;-73
2021/06/14 00:25:09;;;;;;;5.95;5.05;;;;;;;;;;5064435;28;20039;-70
2021/06/14 00:27:54;;;;;;;6.05;4.78;;;;;;;;;;5079443;28;20535;-70
2021/06/14 00:30:39;;;;;;;5.78;4.75;;;;;;;;;;5081109;28;20066;-70
2021/06/14 00:33:24;;;;;;;6.70;4.78;;;;;;;;;;5071387;28;20066;-70
2021/06/14 00:36:08;;;;;;;6.82;4.70;;;;;;;;;;5079292;28;20093;-71
2021/06/14 00:38:53;;;;;;;5.50;4.63;;;;;;;;;;5082609;28;20050;-70
2021/06/14 00:41:38;;;;;;;6.45;4.60;;;;;;;;;;5066382;28;20073;-70
2021/06/14 00:44:22;;;;;;;6.00;4.57;;;;;;;;;;5076278;28;20553;-70
2021/06/14 00:47:07;;;;;;;7.97;4.47;;;;;;;;;;5028671;28;20476;-70
2021/06/14 00:49:51;;;;;;;6.03;4.57;;;;;;;;;;5099564;27;20090;-70
2021/06/14 00:52:36;;;;;;;5.30;4.55;;;;;;;;;;5065034;28;20035;-72
2021/06/14 00:55:20;;;;;;;6.20;4.15;;;;;;;;;;5061611;28;20047;-71
2021/06/14 00:58:05;;;;;;;6.03;3.88;;;;;;;;;;5055593;28;20532;-70
2021/06/14 01:00:50;;;;;;;4.72;3.92;;;;;;;;;;5061684;28;20082;-70
2021/06/14 01:03:34;;;;;;;4.93;3.80;;;;;;;;;;5077771;28;20620;-70
2021/06/14 01:06:19;;;;;;;4.68;3.83;;;;;;;;;;5068456;28;20091;-72
2021/06/14 01:09:03;;;;;;;4.93;3.60;;;;;;;;;;5063792;28;20105;-71
2021/06/14 01:11:57;;;;;;;5.00;3.58;;;;;;;;;;5092817;28;20043;-71
2021/06/14 01:14:45;;;;;;;4.38;3.67;;;;;;;;;;5068662;28;20133;-70
2021/06/14 01:17:48;;;;;;;4.60;3.58;;;;;;;;;;5059349;28;20043;-73
2021/06/14 01:20:48;;;;;;;5.10;3.50;;;;;;;;;;5063597;28;20047;-71
2021/06/14 01:23:39;;;;;;;5.15;3.90;;;;;;;;;;5073390;28;20287;-71
2021/06/14 01:26:24;;;;;;;4.70;3.47;;;;;;;;;;5080283;28;20109;-69
2021/06/14 01:29:08;;;;;;;4.63;3.70;;;;;;;;;;5052549;28;20051;-71
2021/06/14 01:31:53;;;;;;;4.68;3.40;;;;;;;;;;5078476;28;20098;-71
2021/06/14 01:34:38;;;;;;;5.38;3.65;;;;;;;;;;5080277;28;20043;-70
2021/06/14 01:37:23;;;;;;;4.70;3.20;;;;;;;;;;5073995;28;20039;-71
2021/06/14 01:40:07;;;;;;;4.82;3.40;;;;;;;;;;5051525;28;20408;-70
2021/06/14 01:42:53;;;;;;;4.72;3.47;;;;;;;;;;5085000;28;20070;-70
2021/06/14 01:45:42;;;;;;;3.78;3.00;;;;;;;;;;5068113;28;20088;-70
2021/06/14 01:48:27;;;;;;;4.80;3.20;;;;;;;;;;5067561;28;20094;-70
2021/06/14 01:51:12;;;;;;;3.80;3.00;;;;;;;;;;5054866;28;20065;-70
2021/06/14 01:54:03;;;;;;;3.15;2.85;;;;;;;;;;5064819;28;20083;-70
2021/06/14 01:56:50;;;;;;;3.30;2.83;;;;;;;;;;5069886;28;20067;-70
2021/06/14 01:59:36;;;;;;;4.00;2.75;;;;;;;;;;5034914;28;20048;-70
2021/06/14 02:02:20;;;;;;;3.28;2.97;;;;;;;;;;5068187;28;20225;-70
2021/06/14 02:05:05;;;;;;;3.83;2.97;;;;;;;;;;5077507;28;20078;-70
2021/06/14 02:07:50;;;;;;;3.72;2.83;;;;;;;;;;5063551;28;20110;-70
2021/06/14 02:10:35;;;;;;;5.72;3.50;;;;;;;;;;5073141;28;20178;-70
2021/06/14 02:13:20;;;;;;;3.75;3.05;;;;;;;;;;5088375;28;20050;-70
2021/06/14 02:16:05;;;;;;;4.03;3.17;;;;;;;;;;5078712;28;20047;-70
2021/06/14 02:18:50;;;;;;;4.07;3.05;;;;;;;;;;5078373;28;20117;-70
2021/06/14 02:21:35;;;;;;;4.78;2.65;;;;;;;;;;5068132;28;20097;-71
2021/06/14 02:24:20;;;;;;;4.05;2.78;;;;;;;;;;5069031;28;20756;-70
2021/06/14 02:27:05;;;;;;;3.22;2.50;;;;;;;;;;5077364;28;20090;-70
2021/06/14 02:29:50;;;;;;;3.63;2.80;;;;;;;;;;5085250;28;20173;-71
2021/06/14 02:32:34;;;;;;;3.28;2.60;;;;;;;;;;5074987;28;20371;-70
2021/06/14 02:35:19;;;;;;;3.85;2.58;;;;;;;;;;5061256;28;20516;-71
2021/06/14 02:38:05;;;;;;;3.40;2.63;;;;;;;;;;5097040;27;20578;-70
2021/06/14 02:40:50;;;;;;;2.78;2.30;;;;;;;;;;5096171;28;20047;-71
2021/06/14 02:43:34;;;;;;;4.05;2.38;;;;;;;;;;5076867;28;20938;-71
2021/06/14 02:46:18;;;;;;;3.08;2.40;;;;;;;;;;5052985;28;20135;-70
2021/06/14 02:49:03;;;;;;;4.15;2.20;;;;;;;;;;5100861;28;20538;-70
2021/06/14 02:51:48;;;;;;;3.63;2.40;;;;;;;;;;5047446;28;20508;-71
2021/06/14 02:54:35;;;;;;;2.67;2.08;;;;;;;;;;5067777;28;20047;-71
2021/06/14 02:57:19;;;;;;;3.22;2.40;;;;;;;;;;5105615;27;20128;-71
2021/06/14 03:00:06;;;;;;;3.47;1.98;;;;;;;;;;5047360;28;20151;-71
2021/06/14 03:02:51;;;;;;;2.58;2.03;;;;;;;;;;5067457;28;20086;-71
2021/06/14 03:05:36;;;;;;;2.40;1.80;;;;;;;;;;5068339;28;20524;-71
2021/06/14 03:08:21;;;;;;;2.03;1.83;;;;;;;;;;5067842;28;20055;-70
2021/06/14 03:11:05;;;;;;;2.67;2.10;;;;;;;;;;5076227;28;20078;-71
2021/06/14 03:13:50;;;;;;;2.45;1.67;;;;;;;;;;5087233;28;20046;-71
2021/06/14 03:16:34;;;;;;;2.78;1.80;;;;;;;;;;5072937;28;20043;-71
2021/06/14 03:19:23;;;;;;;2.63;1.63;;;;;;;;;;5047180;28;20035;-71
2021/06/14 03:22:10;;;;;;;1.92;1.60;;;;;;;;;;5057858;28;20048;-70
2021/06/14 03:24:55;;;;;;;2.97;1.80;;;;;;;;;;5063723;28;20071;-70
2021/06/14 03:27:40;;;;;;;3.85;1.70;;;;;;;;;;5100070;27;20508;-70
2021/06/14 03:30:25;;;;;;;4.10;1.77;;;;;;;;;;5084740;28;20121;-70
2021/06/14 03:33:10;;;;;;;2.50;1.50;;;;;;;;;;5086605;28;20043;-70
2021/06/14 03:35:54;;;;;;;1.88;1.50;;;;;;;;;;5069662;28;20047;-70
2021/06/14 03:38:41;;;;;;;2.00;1.60;;;;;;;;;;5066748;28;20078;-70
2021/06/14 03:41:25;;;;;;;1.90;1.55;;;;;;;;;;5094816;27;20043;-71
2021/06/14 03:44:10;;;;;;;2.92;1.70;;;;;;;;;;5046731;28;20413;-70
2021/06/14 03:46:54;;;;;;;2.60;1.30;;;;;;;;;;5085477;28;20124;-70
2021/06/14 03:49:39;;;;;;;2.08;1.40;;;;;;;;;;5060877;28;20527;-71
2021/06/14 03:52:24;;;;;;;1.60;1.25;;;;;;;;;;5077883;28;20499;-71
2021/06/14 03:55:08;;;;;;;1.90;1.40;;;;;;;;;;5066666;28;20048;-70
2021/06/14 03:57:53;;;;;;;1.73;1.08;;;;;;;;;;5076867;28;20051;-70
2021/06/14 04:00:38;;;;;;;1.63;1.27;;;;;;;;;;5074836;28;20470;-71
2021/06/14 04:03:26;;;;;;;2.03;1.20;;;;;;;;;;5070570;28;20035;-70
2021/06/14 04:06:11;;;;;;;2.13;1.15;;;;;;;;;;5084622;28;20459;-70
2021/06/14 04:08:55;;;;;;;1.50;1.17;;;;;;;;;;5074138;28;20276;-70
2021/06/14 04:11:40;;;;;;;1.30;1.05;;;;;;;;;;5072238;28;20047;-70
2021/06/14 04:14:25;;;;;;;1.45;1.10;;;;;;;;;;5070310;28;20051;-70
2021/06/14 04:17:10;;;;;;;1.60;1.13;;;;;;;;;;5096253;28;20448;-70
2021/06/14 04:19:54;;;;;;;1.42;0.98;;;;;;;;;;5050688;28;20094;-70
2021/06/14 04:22:39;;;;;;;2.67;1.33;;;;;;;;;;5066673;28;20046;-70
2021/06/14 04:25:24;;;;;;;1.30;1.00;;;;;;;;;;5069335;28;20166;-70
2021/06/14 04:28:08;;;;;;;1.40;1.00;;;;;;;;;;5055949;28;20047;-70
2021/06/14 04:30:53;;;;;;;2.40;0.98;;;;;;;;;;5055075;28;20077;-70
2021/06/14 04:33:37;;;;;;;1.80;0.98;;;;;;;;;;5086729;28;20131;-70
2021/06/14 04:36:22;;;;;;;1.00;0.90;;;;;;;;;;5070102;28;20436;-70
2021/06/14 04:39:07;;;;;;;1.40;1.00;;;;;;;;;;5064720;28;20150;-70
2021/06/14 04:41:51;;;;;;;1.02;0.85;;;;;;;;;;5103602;27;20038;-70
2021/06/14 04:44:36;;;;;;;1.10;0.90;;;;;;;;;;5094218;28;20043;-70
2021/06/14 04:47:20;;;;;;;1.77;1.08;;;;;;;;;;5083226;28;20070;-71
2021/06/14 04:50:06;;;;;;;2.88;0.80;;;;;;;;;;5075679;28;20031;-70
2021/06/14 04:52:50;;;;;;;0.98;0.80;;;;;;;;;;5066094;28;20089;-70
2021/06/14 04:55:35;;;;;;;1.13;0.90;;;;;;;;;;5071063;28;20045;-70
2021/06/14 04:58:20;;;;;;;1.20;0.90;;;;;;;;;;5075108;28;20083;-70
2021/06/14 05:01:05;;;;;;;1.35;0.88;;;;;;;;;;5055778;28;20062;-71
2021/06/14 05:03:49;;;;;;;0.85;0.70;;;;;;;;;;5063437;28;20040;-71
2021/06/14 05:06:34;;;;;;;0.95;0.80;;;;;;;;;;5084104;28;20038;-71
2021/06/14 05:09:18;;;;;;;1.65;0.90;;;;;;;;;;5080836;28;20034;-71
2021/06/14 05:12:03;;;;;;;1.85;0.80;;;;;;;;;;5072647;28;20043;-72
2021/06/14 05:14:48;;;;;;;1.00;0.70;;;;;;;;;;5074353;28;20504;-71
2021/06/14 05:17:32;;;;;;;1.08;0.80;;;;;;;;;;5063584;28;20350;-72
2021/06/14 05:20:17;;;;;;;0.90;0.70;;;;;;;;;;5067553;28;20078;-70
2021/06/14 05:23:03;;;;;;;1.27;0.80;;;;;;;;;;5072937;28;20047;-70
2021/06/14 05:25:48;;;;;;;1.40;0.80;;;;;;;;;;5085426;28;20044;-71
2021/06/14 05:28:32;;;;;;;1.25;0.80;;;;;;;;;;5055618;28;20090;-70
2021/06/14 05:31:17;;;;;;;1.00;0.70;;;;;;;;;;5083501;28;20484;-71
2021/06/14 05:34:01;;;;;;;1.25;0.73;;;;;;;;;;5043657;28;20048;-70
2021/06/14 05:36:46;;;;;;;1.40;0.80;;;;;;;;;;5086073;28;20032;-71
2021/06/14 05:39:31;;;;;;;2.33;0.80;;;;;;;;;;5091124;28;20512;-70
2021/06/14 05:42:15;;;;;;;1.20;0.80;;;;;;;;;;5075398;28;20111;-71
2021/06/14 05:45:00;;;;;;;1.80;0.70;;;;;;;;;;5045848;28;20040;-71
2021/06/14 05:47:45;;;;;;;1.52;0.90;;;;;;;;;;5068148;28;20056;-71
2021/06/14 05:50:30;;;;;;;1.63;0.80;;;;;;;;;;5055620;28;20500;-70
2021/06/14 05:53:15;;;;;;;1.08;0.80;;;;;;;;;;5085796;28;20043;-71
2021/06/14 05:56:00;;;;;;;1.10;0.70;;;;;;;;;;5061051;28;20511;-72
2021/06/14 05:58:44;;;;;;;2.30;1.00;;;;;;;;;;5060122;28;20415;-70
2021/06/14 06:01:29;;;;;;;1.25;0.80;;;;;;;;;;5070834;28;20039;-71
2021/06/14 06:04:16;;;;;;;1.42;0.70;;;;;;;;;;5072610;28;20410;-71
2021/06/14 06:07:01;;;;;;;1.23;0.80;;;;;;;;;;5064494;28;20051;-71
2021/06/14 06:09:45;;;;;;;1.58;0.95;;;;;;;;;;5082041;28;20047;-71
2021/06/14 06:12:30;;;;;;;1.55;0.90;;;;;;;;;;5070852;28;20120;-71
2021/06/14 06:15:16;;;;;;;1.20;0.77;;;;;;;;;;5079218;28;20428;-71
2021/06/14 06:18:01;;;;;;;3.05;0.90;;;;;;;;;;5069817;28;20124;-70
2021/06/14 06:20:46;;;;;;;2.42;0.90;;;;;;;;;;5066412;28;20047;-70
2021/06/14 06:23:31;;;;;;;3.22;1.00;;;;;;;;;;5066626;28;20111;-70
2021/06/14 06:26:15;;;;;;;2.33;0.90;;;;;;;;;;5075743;28;20125;-71
2021/06/14 06:28:59;;;;;;;2.33;0.93;;;;;;;;;;5059437;28;20106;-70
2021/06/14 06:31:44;;;;;;;1.77;0.85;;;;;;;;;;5078088;28;20047;-71
2021/06/14 06:34:28;;;;;;;2.03;1.00;;;;;;;;;;5085644;28;20078;-71
2021/06/14 06:37:13;;;;;;;2.08;1.00;;;;;;;;;;5069543;28;20141;-70
2021/06/14 06:39:58;;;;;;;3.05;0.80;;;;;;;;;;5067231;28;20040;-71
2021/06/14 06:42:42;;;;;;;1.85;0.90;;;;;;;;;;5046338;28;20081;-71
2021/06/14 06:45:27;;;;;;;1.92;1.02;;;;;;;;;;5084816;28;20043;-70
2021/06/14 06:48:12;;;;;;;2.45;0.90;;;;;;;;;;5081490;28;20048;-71
2021/06/14 06:50:57;;;;;;;3.10;1.02;;;;;;;;;;5058880;28;20401;-70
2021/06/14 06:53:42;;;;;;;1.83;0.95;;;;;;;;;;5084476;28;20125;-71
2021/06/14 06:56:26;;;;;;;4.55;1.20;;;;;;;;;;5080096;28;20031;-71
2021/06/14 06:59:11;;;;;;;1.92;0.85;;;;;;;;;;5084860;28;20519;-71
2021/06/14 07:01:56;;;;;;;2.85;1.00;;;;;;;;;;5079713;28;20074;-71
2021/06/14 07:04:41;;;;;;;2.13;0.90;;;;;;;;;;5081344;28;20735;-71
2021/06/14 07:07:26;;;;;;;1.95;0.98;;;;;;;;;;5064500;28;20097;-71
2021/06/14 07:10:11;;;;;;;2.00;0.95;;;;;;;;;;5052316;28;20048;-72
2021/06/14 07:12:56;;;;;;;1.88;1.00;;;;;;;;;;5075787;28;20115;-71
2021/06/14 07:15:41;;;;;;;2.22;0.85;;;;;;;;;;5064548;28;20429;-71
2021/06/14 07:18:25;;;;;;;2.78;0.98;;;;;;;;;;5075819;28;20051;-72
2021/06/14 07:21:10;;;;;;;2.10;0.88;;;;;;;;;;5080320;28;20043;-71
2021/06/14 07:23:54;;;;;;;2.53;0.90;;;;;;;;;;5045472;28;20448;-71
2021/06/14 07:26:39;;;;;;;1.88;1.05;;;;;;;;;;5093154;27;20174;-71
2021/06/14 07:29:23;;;;;;;2.30;1.00;;;;;;;;;;5093975;28;20784;-71
2021/06/14 07:32:08;;;;;;;2.08;0.90;;;;;;;;;;5108216;27;20043;-71
2021/06/14 07:34:53;;;;;;;2.40;1.00;;;;;;;;;;5082126;28;20107;-71
2021/06/14 07:37:38;;;;;;;2.55;1.30;;;;;;;;;;5065785;28;20059;-71
2021/06/14 07:40:23;;;;;;;1.85;0.98;;;;;;;;;;5053000;28;20087;-71
2021/06/14 07:43:11;;;;;;;1.83;0.88;;;;;;;;;;5051077;28;20413;-70
2021/06/14 07:45:56;;;;;;;3.22;1.10;;;;;;;;;;5066159;28;20043;-70
2021/06/14 07:48:40;;;;;;;3.38;0.80;;;;;;;;;;5063922;28;20057;-71
2021/06/14 07:51:25;;;;;;;3.22;1.00;;;;;;;;;;5063259;28;20115;-70
2021/06/14 07:54:09;;;;;;;3.03;1.10;;;;;;;;;;5062757;28;20047;-70
2021/06/14 07:56:53;;;;;;;2.88;1.00;;;;;;;;;;5083502;28;20052;-70
2021/06/14 07:59:38;;;;;;;3.03;1.20;;;;;;;;;;5072847;28;20125;-73
2021/06/14 08:02:23;;;;;;;2.20;0.98;;;;;;;;;;5064197;28;20040;-71
2021/06/14 08:05:08;;;;;;;1.52;0.80;;;;;;;;;;5064945;28;20094;-70
2021/06/14 08:07:53;;;;;;;2.58;1.05;;;;;;;;;;5058535;28;20523;-70
2021/06/14 08:10:38;;;;;;;3.70;1.15;;;;;;;;;;5062561;28;20035;-70
2021/06/14 08:13:22;;;;;;;2.42;1.02;;;;;;;;;;5076221;28;20123;-70
2021/06/14 08:16:09;;;;;;;2.40;1.08;;;;;;;;;;5090765;28;20094;-70
2021/06/14 08:27:29;;;;;;;4.90;1.30;;;;;;;;;;5053674;28;20051;-70
2021/06/14 08:30:14;;;;;;;2.15;1.00;;;;;;;;;;5058093;28;20043;-70
2021/06/14 08:32:59;;;;;;;2.95;1.20;;;;;;;;;;5086548;28;20112;-71
2021/06/14 08:35:44;;;;;;;4.45;1.13;;;;;;;;;;5060824;28;20567;-70
2021/06/14 08:38:28;;;;;;;2.72;1.15;;;;;;;;;;5061680;28;20652;-70
2021/06/14 08:41:13;;;;;;;2.83;1.20;;;;;;;;;;5057393;28;20173;-70
2021/06/14 08:43:58;;;;;;;2.85;1.20;;;;;;;;;;5061993;28;20097;-70
2021/06/14 08:46:43;;;;;;;3.30;1.38;;;;;;;;;;5061366;28;20094;-70
2021/06/14 08:49:27;;;;;;;3.22;1.13;;;;;;;;;;5056075;28;20047;-71
2021/06/14 08:52:12;;;;;;;3.05;1.50;;;;;;;;;;5089988;28;20479;-71
2021/06/14 08:54:56;;;;;;;3.38;1.40;;;;;;;;;;5062782;28;20089;-70
2021/06/14 08:57:41;;;;;;;2.80;1.30;;;;;;;;;;5046971;28;20116;-71
2021/06/14 09:00:25;;;;;;;4.65;1.40;;;;;;;;;;5060715;28;20036;-70
2021/06/14 09:03:10;;;;;;;3.95;1.45;;;;;;;;;;5084206;28;20606;-70
2021/06/14 09:05:55;;;;;;;3.78;1.27;;;;;;;;;;5067435;28;20165;-70
2021/06/14 09:08:40;;;;;;;2.95;1.30;;;;;;;;;;5059948;28;20051;-70
2021/06/14 09:11:25;;;;;;;4.20;1.30;;;;;;;;;;5047551;28;20119;-70
2021/06/14 09:14:14;;;;;;;3.75;1.50;;;;;;;;;;5082863;28;20038;-70
2021/06/14 09:17:03;;;;;;;2.55;1.40;;;;;;;;;;5058131;28;20078;-70
2021/06/14 09:19:57;;;;;;;2.78;1.30;;;;;;;;;;5057938;28;20074;-70
2021/06/14 09:22:42;;;;;;;4.93;1.70;;;;;;;;;;5059901;28;20421;-70
2021/06/14 09:25:26;;;;;;;3.10;1.45;;;;;;;;;;5075585;28;20541;-71
2021/06/14 09:28:11;;;;;;;3.10;1.70;;;;;;;;;;5078598;28;20175;-70
2021/06/14 09:30:55;;;;;;;3.15;1.40;;;;;;;;;;5063313;28;20065;-70
2021/06/14 09:33:42;;;;;;;3.50;1.40;;;;;;;;;;5058855;28;20535;-70
2021/06/14 09:36:27;;;;;;;3.20;1.50;;;;;;;;;;5059139;28;20086;-70
2021/06/14 09:39:17;;;;;;;2.42;1.38;;;;;;;;;;5060812;28;20670;-73
2021/06/14 09:42:11;;;;;;;4.25;1.50;;;;;;;;;;5056513;28;20047;-71
2021/06/14 09:45:03;;;;;;;2.90;1.27;;;;;;;;;;5056552;28;20131;-71
2021/06/14 09:47:48;;;;;;;3.92;1.60;;;;;;;;;;5065809;28;20085;-71
2021/06/14 09:50:33;;;;;;;6.40;1.75;;;;;;;;;;5067059;28;20074;-71
2021/06/14 09:53:18;;;;;;;4.85;1.42;;;;;;;;;;5066236;28;20564;-70
2021/06/14 09:56:13;;;;;;;4.10;1.83;;;;;;;;;;5065666;28;20169;-71
2021/06/14 09:58:58;;;;;;;3.58;1.70;;;;;;;;;;5066043;28;20102;-71
2021/06/14 10:01:43;;;;;;;6.35;2.03;;;;;;;;;;5070207;28;20035;-70
2021/06/14 10:04:29;;;;;;;4.53;1.58;;;;;;;;;;5078310;28;20039;-70
2021/06/14 10:07:14;;;;;;;6.57;1.85;;;;;;;;;;5059804;28;20145;-69
2021/06/14 10:09:59;;;;;;;2.95;1.45;;;;;;;;;;5050078;28;20427;-70
2021/06/14 10:12:48;;;;;;;5.68;1.83;;;;;;;;;;5066602;28;20112;-70
2021/06/14 10:15:33;;;;;;;3.70;1.70;;;;;;;;;;5068567;28;20067;-70
2021/06/14 10:18:19;;;;;;;5.40;1.83;;;;;;;;;;5080345;28;20568;-72
2021/06/14 10:21:24;;;;;;;5.65;1.80;;;;;;;;;;5063948;28;20148;-72
2021/06/14 10:24:10;;;;;;;5.18;1.50;;;;;;;;;;5067557;28;20067;-71
2021/06/14 10:26:55;;;;;;;6.38;2.10;;;;;;;;;;5097436;28;20495;-71
2021/06/14 10:29:39;;;;;;;3.97;1.80;;;;;;;;;;5071715;28;20064;-72
2021/06/14 10:32:24;;;;;;;5.22;1.85;;;;;;;;;;5092281;28;20043;-71
2021/06/14 10:35:09;;;;;;;4.53;1.70;;;;;;;;;;5062271;28;20072;-69
2021/06/14 10:37:54;;;;;;;4.38;1.70;;;;;;;;;;5061328;28;20040;-69
2021/06/14 10:40:39;;;;;;;4.00;1.65;;;;;;;;;;5069030;28;20042;-69
2021/06/14 10:43:27;;;;;;;5.03;1.67;;;;;;;;;;5043415;28;20570;-70
2021/06/14 10:46:13;;;;;;;3.90;1.73;;;;;;;;;;5079833;28;20039;-70
2021/06/14 10:49:00;;;;;;;5.18;1.73;;;;;;;;;;5066851;28;20079;-70
2021/06/14 10:51:45;;;;;;;6.78;1.88;;;;;;;;;;5064910;28;20105;-70
2021/06/14 10:54:41;;;;;;;9.77;2.00;;;;;;;;;;5057113;28;20040;-74
2021/06/14 10:57:30;;;;;;;6.20;1.80;;;;;;;;;;5077160;28;20549;-76
2021/06/14 11:00:22;;;;;;;8.48;1.83;;;;;;;;;;5064457;28;20038;-76
2021/06/14 11:03:13;;;;;;;4.50;1.60;;;;;;;;;;5063288;28;20102;-70
2021/06/14 11:05:58;;;;;;;4.45;1.48;;;;;;;;;;5061423;28;20039;-67
2021/06/14 11:08:44;;;;;;;8.07;1.65;;;;;;;;;;5065434;28;20112;-67
2021/06/14 11:11:31;;;;;;;6.43;2.17;;;;;;;;;;5091828;28;20039;-67
2021/06/14 11:14:27;;;;;;;5.85;1.75;;;;;;;;;;5066388;28;20048;-67
2021/06/14 11:17:15;;;;;;;4.95;1.92;;;;;;;;;;5065690;28;20048;-74
2021/06/14 11:20:00;;;;;;;5.80;1.90;;;;;;;;;;5057985;28;20086;-75
2021/06/14 11:22:46;;;;;;;6.50;1.88;;;;;;;;;;5060588;28;20475;-73
2021/06/14 11:25:32;;;;;;;5.70;1.83;;;;;;;;;;5057953;28;20178;-74
2021/06/14 11:28:36;;;;;;;5.90;2.05;;;;;;;;;;5060787;28;20866;-74
2021/06/14 11:31:25;;;;;;;4.47;1.70;;;;;;;;;;5063863;28;20109;-74
2021/06/14 11:34:17;;;;;;;6.15;1.98;;;;;;;;;;5071852;28;20410;-78
2021/06/14 11:37:02;;;;;;;5.72;1.77;;;;;;;;;;5064602;28;20515;-76
2021/06/14 11:39:47;;;;;;;4.07;1.90;;;;;;;;;;5077718;28;20665;-75
2021/06/14 11:42:42;;;;;;;6.50;2.00;;;;;;;;;;5075539;28;20043;-77
2021/06/14 11:45:28;;;;;;;4.72;1.60;;;;;;;;;;5071347;28;20074;-78
2021/06/14 11:48:23;;;;;;;6.20;1.88;;;;;;;;;;5063781;28;20055;-77
2021/06/14 11:51:20;;;;;;;6.03;2.00;;;;;;;;;;5087918;27;20097;-76
2021/06/14 11:54:05;;;;;;;4.78;2.00;;;;;;;;;;5056303;28;20158;-75
2021/06/14 11:57:00;;;;;;;7.28;1.90;;;;;;;;;;5061135;28;20369;-75
2021/06/14 11:59:45;;;;;;;5.78;1.73;;;;;;;;;;5066736;28;20079;-76
2021/06/14 12:02:30;;;;;;;5.40;1.90;;;;;;;;;;5059984;28;20044;-75
2021/06/14 12:05:14;;;;;;;4.93;1.83;;;;;;;;;;5063274;28;20043;-75
2021/06/14 12:07:59;;;;;;;4.90;1.58;;;;;;;;;;5043806;28;20043;-76
2021/06/14 12:10:44;;;;;;;4.53;1.60;;;;;;;;;;5075916;28;20039;-76
2021/06/14 12:13:29;;;;;;;6.60;1.83;;;;;;;;;;5048468;28;20510;-77
2021/06/14 12:16:13;;;;;;;4.47;2.00;;;;;;;;;;5063478;28;20059;-76
2021/06/14 12:18:59;;;;;;;3.80;1.73;;;;;;;;;;5068008;28;20206;-76
2021/06/14 12:21:51;;;;;;;5.45;1.90;;;;;;;;;;5086665;27;20043;-74
2021/06/14 12:24:35;;;;;;;4.50;1.80;;;;;;;;;;5081156;28;20120;-76
2021/06/14 12:27:20;;;;;;;3.53;1.50;;;;;;;;;;5054015;28;20098;-76
2021/06/14 12:30:06;;;;;;;4.43;1.63;;;;;;;;;;5065713;28;20044;-76
2021/06/14 12:32:51;;;;;;;4.55;1.73;;;;;;;;;;5063219;28;20452;-76
2021/06/14 12:35:36;;;;;;;3.67;1.70;;;;;;;;;;5068976;28;20070;-76
2021/06/14 12:38:20;;;;;;;4.63;1.88;;;;;;;;;;5062980;28;20108;-76
2021/06/14 12:41:07;;;;;;;3.42;1.60;;;;;;;;;;5062125;28;20039;-76
2021/06/14 12:43:53;;;;;;;4.50;1.92;;;;;;;;;;5059887;28;20205;-77
2021/06/14 12:46:38;;;;;;;6.32;1.98;;;;;;;;;;5066886;28;20120;-78
2021/06/14 12:49:23;;;;;;;3.90;1.65;;;;;;;;;;5064680;28;20131;-78
2021/06/14 12:52:16;;;;;;;3.90;1.75;;;;;;;;;;5064958;28;20034;-78
2021/06/14 12:55:00;;;;;;;5.07;1.80;;;;;;;;;;5065571;28;20043;-78
2021/06/14 12:57:45;;;;;;;6.72;1.90;;;;;;;;;;5065382;28;20162;-78
2021/06/14 13:00:33;;;;;;;4.93;1.65;;;;;;;;;;5064345;28;20085;-77
2021/06/14 13:03:17;;;;;;;3.70;1.63;;;;;;;;;;5060284;28;20491;-78
2021/06/14 13:06:02;;;;;;;3.90;1.58;;;;;;;;;;5059693;28;20040;-77
2021/06/14 13:08:48;;;;;;;4.72;1.75;;;;;;;;;;5070915;28;20052;-79
2021/06/14 13:11:43;;;;;;;4.65;1.70;;;;;;;;;;5060730;28;20544;-78
2021/06/14 13:14:30;;;;;;;4.47;1.70;;;;;;;;;;5059603;28;20474;-77
2021/06/14 13:17:24;;;;;;;6.00;1.95;;;;;;;;;;5050170;28;20039;-79
2021/06/14 13:20:09;;;;;;;4.57;1.70;;;;;;;;;;5080310;28;20047;-79
2021/06/14 13:22:54;;;;;;;4.43;1.98;;;;;;;;;;5072627;28;20408;-77
2021/06/14 13:25:42;;;;;;;5.30;1.80;;;;;;;;;;5060844;28;20868;-77
2021/06/14 13:28:31;;;;;;;4.22;1.90;;;;;;;;;;5066343;28;20173;-77
2021/06/14 13:31:20;;;;;;;5.85;1.63;;;;;;;;;;5087639;28;20038;-77
2021/06/14 13:36:49;;;;;;;4.47;2.00;;;;;;;;;;5082408;28;20173;-78
2021/06/14 13:39:36;;;;;;;5.85;1.83;;;;;;;;;;5067774;28;21874;-77
2021/06/14 13:42:20;;;;;;;3.42;1.70;;;;;;;;;;5052407;28;20050;-76
2021/06/14 13:45:06;;;;;;;4.28;1.67;;;;;;;;;;5066177;28;20042;-77
2021/06/14 13:47:57;;;;;;;7.00;2.20;;;;;;;;;;5068731;28;20052;-77
2021/06/14 13:50:42;;;;;;;5.07;1.80;;;;;;;;;;5065791;28;20093;-77
2021/06/14 13:53:27;;;;;;;5.43;1.85;;;;;;;;;;5060082;28;20035;-79
2021/06/14 13:56:13;;;;;;;4.85;1.73;;;;;;;;;;5052100;28;20130;-79
2021/06/14 13:58:58;;;;;;;5.28;1.80;;;;;;;;;;5053944;28;20139;-79
2021/06/14 14:01:42;;;;;;;3.63;1.70;;;;;;;;;;5064285;28;20432;-79
2021/06/14 14:04:27;;;;;;;6.63;2.00;;;;;;;;;;5050417;28;20039;-79
2021/06/14 14:07:12;;;;;;;4.47;1.92;;;;;;;;;;5062158;28;20047;-79
2021/06/14 14:09:58;;;;;;;4.38;1.63;;;;;;;;;;5064897;28;20539;-79
2021/06/14 14:12:42;;;;;;;4.38;1.73;;;;;;;;;;5048724;28;20072;-77
2021/06/14 14:15:27;;;;;;;4.28;1.92;;;;;;;;;;5080513;28;20735;-77
2021/06/14 14:18:11;;;;;;;3.92;1.73;;;;;;;;;;5077098;28;20040;-80
2021/06/14 14:20:56;;;;;;;5.72;1.70;;;;;;;;;;5092756;27;20616;-80
2021/06/14 14:23:41;;;;;;;5.18;2.08;;;;;;;;;;5064389;28;20194;-79
2021/06/14 14:26:25;;;;;;;4.18;1.70;;;;;;;;;;5068692;28;20152;-80
2021/06/14 14:29:13;;;;;;;4.35;1.75;;;;;;;;;;5066474;28;20662;-81
2021/06/14 14:31:59;;;;;;;5.53;2.00;;;;;;;;;;5042494;28;20040;-78
2021/06/14 14:34:45;;;;;;;5.82;1.65;;;;;;;;;;5074970;28;20611;-78
2021/06/14 14:37:30;;;;;;;4.20;2.10;;;;;;;;;;5072491;28;20042;-78
2021/06/14 14:40:14;;;;;;;3.83;1.75;;;;;;;;;;5072223;28;20096;-79
2021/06/14 14:42:59;;;;;;;4.72;1.70;;;;;;;;;;5032668;28;20170;-78
2021/06/14 14:45:44;;;;;;;5.15;1.90;;;;;;;;;;5078776;28;20413;-76
2021/06/14 14:48:28;;;;;;;6.90;2.17;;;;;;;;;;5076783;28;20050;-79
2021/06/14 14:51:13;;;;;;;5.60;1.90;;;;;;;;;;5067133;28;20063;-78
2021/06/14 14:54:11;;;;;;;7.55;1.75;;;;;;;;;;5061566;28;20085;-78
2021/06/14 14:56:56;;;;;;;7.03;2.03;;;;;;;;;;5035645;28;20047;-78
2021/06/14 14:59:41;;;;;;;4.78;1.80;;;;;;;;;;5054014;28;20117;-78
2021/06/14 15:02:26;;;;;;;11.07;2.00;;;;;;;;;;5076422;28;20145;-83
2021/06/14 15:05:11;;;;;;;3.88;1.67;;;;;;;;;;5063676;28;20035;-76
2021/06/14 15:07:55;;;;;;;4.55;1.52;;;;;;;;;;5052973;28;20106;-79
2021/06/14 15:10:40;;;;;;;6.28;2.00;;;;;;;;;;5050216;28;20071;-78
2021/06/14 15:13:25;;;;;;;5.80;1.80;;;;;;;;;;5070771;28;20454;-79
2021/06/14 15:16:09;;;;;;;4.68;1.80;;;;;;;;;;5076167;28;20119;-78
2021/06/14 15:18:54;;;;;;;7.75;1.88;;;;;;;;;;5078312;28;20043;-81
2021/06/14 15:21:38;;;;;;;5.50;2.00;;;;;;;;;;5070757;28;20405;-78
2021/06/14 15:24:23;;;;;;;7.65;1.90;;;;;;;;;;5057367;28;20507;-78
2021/06/14 15:27:08;;;;;;;4.10;1.60;;;;;;;;;;5059468;28;20027;-78
2021/06/14 15:29:52;;;;;;;6.80;2.05;;;;;;;;;;5075462;28;20121;-78
2021/06/14 15:32:37;;;;;;;4.90;1.90;;;;;;;;;;5069285;28;20041;-79
2021/06/14 15:35:22;;;;;;;5.60;1.85;;;;;;;;;;5082404;28;20094;-77
2021/06/14 15:38:06;;;;;;;4.55;2.20;;;;;;;;;;5054722;28;20085;-78
2021/06/14 15:40:51;;;;;;;6.03;1.92;;;;;;;;;;5068181;28;20036;-76
2021/06/14 15:43:36;;;;;;;4.68;1.90;;;;;;;;;;5076925;27;20035;-78
2021/06/14 15:46:21;;;;;;;5.88;1.95;;;;;;;;;;5071007;28;20035;-76
2021/06/14 15:49:05;;;;;;;4.75;1.92;;;;;;;;;;5079989;28;20062;-77
2021/06/14 15:51:50;;;;;;;8.52;2.20;;;;;;;;;;5049166;28;20042;-77
2021/06/14 15:54:35;;;;;;;6.22;2.10;;;;;;;;;;5059063;28;21054;-77
2021/06/14 15:57:20;;;;;;;4.63;1.83;;;;;;;;;;5046153;28;20562;-76
2021/06/14 16:00:05;;;;;;;3.97;1.70;;;;;;;;;;5060129;28;20214;-75
2021/06/14 16:02:50;;;;;;;6.75;2.35;;;;;;;;;;5061361;28;20058;-78
2021/06/14 16:05:35;;;;;;;4.43;1.75;;;;;;;;;;5063714;28;20575;-77
2021/06/14 16:08:21;;;;;;;5.28;2.13;;;;;;;;;;5067745;28;20152;-76
2021/06/14 16:11:06;;;;;;;3.45;1.60;;;;;;;;;;5058720;28;20744;-76
2021/06/14 16:13:51;;;;;;;5.15;2.20;;;;;;;;;;5065047;28;20511;-78
2021/06/14 16:16:36;;;;;;;4.25;1.90;;;;;;;;;;5055068;28;20090;-77
2021/06/14 16:19:20;;;;;;;4.97;1.80;;;;;;;;;;5066747;28;20062;-76
2021/06/14 16:22:05;;;;;;;4.68;1.77;;;;;;;;;;5071537;28;20110;-78
2021/06/14 16:24:50;;;;;;;4.10;1.77;;;;;;;;;;5062528;28;21822;-77
2021/06/14 16:27:35;;;;;;;4.07;1.95;;;;;;;;;;5064294;28;20047;-78
2021/06/14 16:30:19;;;;;;;5.93;2.00;;;;;;;;;;5061669;28;20047;-77
2021/06/14 16:33:04;;;;;;;4.57;1.90;;;;;;;;;;5076875;28;20047;-76
2021/06/14 16:35:49;;;;;;;7.13;2.03;;;;;;;;;;5063861;28;20047;-77
2021/06/14 16:38:34;;;;;;;9.88;2.40;;;;;;;;;;5071935;28;20079;-79
2021/06/14 16:41:19;;;;;;;11.60;2.13;;;;;;;;;;5093393;27;20455;-78
2021/06/14 16:44:03;;;;;;;8.48;2.30;;;;;;;;;;5061898;28;20134;-77